sensor_id;sensor_type;location;lat;lon;timestamp;temperature;humidity
13336;DHT22;6737;51.480;11.962;2023-04-28T00:02:09;7.70;99.90
13336;DHT22;6737;51.480;11.962;2023-04-28T00:04:35;7.70;99.90
13336;DHT22;6737;51.480;11.962;2023-04-28T00:07:01;7.70;99.90
13336;DHT22;6737;51.480;11.962;2023-04-28T00:09:27;7.70;99.90
13336;DHT22;6737;51.480;11.962;2023-04-28T00:11:53;7.70;99.90
13336;DHT22;6737;51.480;11.962;2023-04-28T00:14:18;7.60;99.90
13336;DHT22;6737;51.480;11.962;2023-04-28T00:16:44;7.60;99.90
13336;DHT22;6737;51.480;11.962;2023-04-28T00:19:10;7.60;99.90
13336;DHT22;6737;51.480;11.962;2023-04-28T00:21:36;7.60;99.90
13336;DHT22;6737;51.480;11.962;2023-04-28T00:24:01;7.50;99.90
13336;DHT22;6737;51.480;11.962;2023-04-28T00:26:27;7.60;99.90
13336;DHT22;6737;51.480;11.962;2023-04-28T00:28:53;7.60;99.90
13336;DHT22;6737;51.480;11.962;2023-04-28T00:31:18;7.60;99.90
13336;DHT22;6737;51.480;11.962;2023-04-28T00:33:44;7.50;99.90
13336;DHT22;6737;51.480;11.962;2023-04-28T00:36:10;7.50;99.90
13336;DHT22;6737;51.480;11.962;2023-04-28T00:38:36;7.50;99.90
13336;DHT22;6737;51.480;11.962;2023-04-28T00:41:03;7.50;99.90
13336;DHT22;6737;51.480;11.962;2023-04-28T00:43:28;7.50;99.90
13336;DHT22;6737;51.480;11.962;2023-04-28T00:45:54;7.50;99.90
13336;DHT22;6737;51.480;11.962;2023-04-28T00:48:20;7.50;99.90
13336;DHT22;6737;51.480;11.962;2023-04-28T00:50:47;7.50;99.90
13336;DHT22;6737;51.480;11.962;2023-04-28T00:53:13;7.50;99.90
13336;DHT22;6737;51.480;11.962;2023-04-28T00:55:39;7.50;99.90
13336;DHT22;6737;51.480;11.962;2023-04-28T00:58:05;7.50;99.90
13336;DHT22;6737;51.480;11.962;2023-04-28T01:00:32;7.50;99.90
13336;DHT22;6737;51.480;11.962;2023-04-28T01:02:58;7.50;99.90
13336;DHT22;6737;51.480;11.962;2023-04-28T01:05:28;7.50;99.90
13336;DHT22;6737;51.480;11.962;2023-04-28T01:07:54;7.50;99.90
13336;DHT22;6737;51.480;11.962;2023-04-28T01:10:20;7.50;99.90
13336;DHT22;6737;51.480;11.962;2023-04-28T01:12:46;7.40;99.90
13336;DHT22;6737;51.480;11.962;2023-04-28T01:15:16;7.40;99.90
13336;DHT22;6737;51.480;11.962;2023-04-28T01:17:42;7.40;99.90
13336;DHT22;6737;51.480;11.962;2023-04-28T01:20:09;7.40;99.90
13336;DHT22;6737;51.480;11.962;2023-04-28T01:22:35;7.30;99.90
13336;DHT22;6737;51.480;11.962;2023-04-28T01:25:01;7.30;99.90
13336;DHT22;6737;51.480;11.962;2023-04-28T01:27:28;7.40;99.90
13336;DHT22;6737;51.480;11.962;2023-04-28T01:29:54;7.30;99.90
13336;DHT22;6737;51.480;11.962;2023-04-28T01:32:21;7.30;99.90
13336;DHT22;6737;51.480;11.962;2023-04-28T01:34:47;7.30;99.90
13336;DHT22;6737;51.480;11.962;2023-04-28T01:37:13;7.30;99.90
13336;DHT22;6737;51.480;11.962;2023-04-28T01:39:38;7.30;99.90
13336;DHT22;6737;51.480;11.962;2023-04-28T01:42:04;7.30;99.90
13336;DHT22;6737;51.480;11.962;2023-04-28T01:44:30;7.30;99.90
13336;DHT22;6737;51.480;11.962;2023-04-28T01:46:56;7.30;99.90
13336;DHT22;6737;51.480;11.962;2023-04-28T01:49:22;7.30;99.90
13336;DHT22;6737;51.480;11.962;2023-04-28T01:51:48;7.30;99.90
13336;DHT22;6737;51.480;11.962;2023-04-28T01:54:14;7.30;99.90
13336;DHT22;6737;51.480;11.962;2023-04-28T01:56:40;7.20;99.90
13336;DHT22;6737;51.480;11.962;2023-04-28T01:59:06;7.30;99.90
13336;DHT22;6737;51.480;11.962;2023-04-28T02:01:31;7.20;99.90
13336;DHT22;6737;51.480;11.962;2023-04-28T02:03:57;7.20;99.90
13336;DHT22;6737;51.480;11.962;2023-04-28T02:06:23;7.20;99.90
13336;DHT22;6737;51.480;11.962;2023-04-28T02:08:49;7.20;99.90
13336;DHT22;6737;51.480;11.962;2023-04-28T02:11:15;7.20;99.90
13336;DHT22;6737;51.480;11.962;2023-04-28T02:13:40;7.10;99.90
13336;DHT22;6737;51.480;11.962;2023-04-28T02:16:06;7.10;99.90
13336;DHT22;6737;51.480;11.962;2023-04-28T02:18:32;7.10;99.90
13336;DHT22;6737;51.480;11.962;2023-04-28T02:21:10;7.00;99.90
13336;DHT22;6737;51.480;11.962;2023-04-28T02:23:36;7.00;99.90
13336;DHT22;6737;51.480;11.962;2023-04-28T02:26:02;7.10;99.90
13336;DHT22;6737;51.480;11.962;2023-04-28T02:28:29;7.00;99.90
13336;DHT22;6737;51.480;11.962;2023-04-28T02:31:08;7.00;99.90
13336;DHT22;6737;51.480;11.962;2023-04-28T02:33:35;7.00;99.90
13336;DHT22;6737;51.480;11.962;2023-04-28T02:36:02;6.90;99.90
13336;DHT22;6737;51.480;11.962;2023-04-28T02:38:29;6.90;99.90
13336;DHT22;6737;51.480;11.962;2023-04-28T02:41:05;6.90;99.90
13336;DHT22;6737;51.480;11.962;2023-04-28T02:43:34;7.00;99.90
13336;DHT22;6737;51.480;11.962;2023-04-28T02:46:04;6.90;99.90
13336;DHT22;6737;51.480;11.962;2023-04-28T02:48:30;6.80;99.90
13336;DHT22;6737;51.480;11.962;2023-04-28T02:50:57;6.80;99.90
13336;DHT22;6737;51.480;11.962;2023-04-28T02:53:23;6.80;99.90
13336;DHT22;6737;51.480;11.962;2023-04-28T02:55:49;6.80;99.90
13336;DHT22;6737;51.480;11.962;2023-04-28T02:58:14;6.80;99.90
13336;DHT22;6737;51.480;11.962;2023-04-28T03:00:42;6.80;99.90
13336;DHT22;6737;51.480;11.962;2023-04-28T03:03:08;6.80;99.90
13336;DHT22;6737;51.480;11.962;2023-04-28T03:05:34;6.70;99.90
13336;DHT22;6737;51.480;11.962;2023-04-28T03:08:00;6.70;99.90
13336;DHT22;6737;51.480;11.962;2023-04-28T03:10:29;6.70;99.90
13336;DHT22;6737;51.480;11.962;2023-04-28T03:12:55;6.80;99.90
13336;DHT22;6737;51.480;11.962;2023-04-28T03:15:20;6.80;99.90
13336;DHT22;6737;51.480;11.962;2023-04-28T03:17:46;6.80;99.90
13336;DHT22;6737;51.480;11.962;2023-04-28T03:20:12;6.90;99.90
13336;DHT22;6737;51.480;11.962;2023-04-28T03:22:38;6.90;99.90
13336;DHT22;6737;51.480;11.962;2023-04-28T03:25:04;6.80;99.90
13336;DHT22;6737;51.480;11.962;2023-04-28T03:27:30;6.80;99.90
13336;DHT22;6737;51.480;11.962;2023-04-28T03:29:56;6.80;99.90
13336;DHT22;6737;51.480;11.962;2023-04-28T03:32:22;6.90;99.90
13336;DHT22;6737;51.480;11.962;2023-04-28T03:34:47;6.90;99.90
13336;DHT22;6737;51.480;11.962;2023-04-28T03:37:13;6.80;99.90
13336;DHT22;6737;51.480;11.962;2023-04-28T03:39:39;6.80;99.90
13336;DHT22;6737;51.480;11.962;2023-04-28T03:42:05;6.80;99.90
13336;DHT22;6737;51.480;11.962;2023-04-28T03:44:31;6.80;99.90
13336;DHT22;6737;51.480;11.962;2023-04-28T03:46:56;6.80;99.90
13336;DHT22;6737;51.480;11.962;2023-04-28T03:49:22;6.70;99.90
13336;DHT22;6737;51.480;11.962;2023-04-28T03:51:48;6.70;99.90
13336;DHT22;6737;51.480;11.962;2023-04-28T03:54:16;6.70;99.90
13336;DHT22;6737;51.480;11.962;2023-04-28T03:56:42;6.70;99.90
13336;DHT22;6737;51.480;11.962;2023-04-28T03:59:08;6.70;99.90
13336;DHT22;6737;51.480;11.962;2023-04-28T04:01:36;6.70;99.90
13336;DHT22;6737;51.480;11.962;2023-04-28T04:04:03;6.70;99.90
13336;DHT22;6737;51.480;11.962;2023-04-28T04:06:28;6.70;99.90
13336;DHT22;6737;51.480;11.962;2023-04-28T04:08:55;6.70;99.90
13336;DHT22;6737;51.480;11.962;2023-04-28T04:11:21;6.70;99.90
13336;DHT22;6737;51.480;11.962;2023-04-28T04:13:47;6.70;99.90
13336;DHT22;6737;51.480;11.962;2023-04-28T04:16:14;6.80;99.90
13336;DHT22;6737;51.480;11.962;2023-04-28T04:18:41;6.80;99.90
13336;DHT22;6737;51.480;11.962;2023-04-28T04:21:06;6.80;99.90
13336;DHT22;6737;51.480;11.962;2023-04-28T04:23:32;6.70;99.90
13336;DHT22;6737;51.480;11.962;2023-04-28T04:25:58;6.70;99.90
13336;DHT22;6737;51.480;11.962;2023-04-28T04:28:24;6.70;99.90
13336;DHT22;6737;51.480;11.962;2023-04-28T04:30:50;6.70;99.90
13336;DHT22;6737;51.480;11.962;2023-04-28T04:33:15;6.70;99.90
13336;DHT22;6737;51.480;11.962;2023-04-28T04:35:41;6.80;99.90
13336;DHT22;6737;51.480;11.962;2023-04-28T04:38:07;6.70;99.90
13336;DHT22;6737;51.480;11.962;2023-04-28T04:40:33;6.70;99.90
13336;DHT22;6737;51.480;11.962;2023-04-28T04:43:00;6.80;99.90
13336;DHT22;6737;51.480;11.962;2023-04-28T04:45:26;6.90;99.90
13336;DHT22;6737;51.480;11.962;2023-04-28T04:47:52;7.00;99.90
13336;DHT22;6737;51.480;11.962;2023-04-28T04:50:17;7.00;99.90
13336;DHT22;6737;51.480;11.962;2023-04-28T04:52:43;7.10;99.90
13336;DHT22;6737;51.480;11.962;2023-04-28T04:55:09;7.00;99.90
13336;DHT22;6737;51.480;11.962;2023-04-28T04:57:36;7.10;99.90
13336;DHT22;6737;51.480;11.962;2023-04-28T05:00:03;7.10;99.90
13336;DHT22;6737;51.480;11.962;2023-04-28T05:02:30;7.10;99.90
13336;DHT22;6737;51.480;11.962;2023-04-28T05:04:56;7.20;99.90
13336;DHT22;6737;51.480;11.962;2023-04-28T05:07:21;7.20;99.90
13336;DHT22;6737;51.480;11.962;2023-04-28T05:09:47;7.30;99.90
13336;DHT22;6737;51.480;11.962;2023-04-28T05:12:13;7.30;99.90
13336;DHT22;6737;51.480;11.962;2023-04-28T05:14:38;7.40;99.90
13336;DHT22;6737;51.480;11.962;2023-04-28T05:17:04;7.40;99.90
13336;DHT22;6737;51.480;11.962;2023-04-28T05:19:30;7.40;99.90
13336;DHT22;6737;51.480;11.962;2023-04-28T05:21:56;7.50;99.90
13336;DHT22;6737;51.480;11.962;2023-04-28T05:24:22;7.60;99.90
13336;DHT22;6737;51.480;11.962;2023-04-28T05:26:51;7.60;99.90
13336;DHT22;6737;51.480;11.962;2023-04-28T05:29:19;7.60;99.90
13336;DHT22;6737;51.480;11.962;2023-04-28T05:31:46;7.70;99.90
13336;DHT22;6737;51.480;11.962;2023-04-28T05:34:11;7.70;99.90
13336;DHT22;6737;51.480;11.962;2023-04-28T05:36:37;7.70;99.90
13336;DHT22;6737;51.480;11.962;2023-04-28T05:39:03;7.80;99.90
13336;DHT22;6737;51.480;11.962;2023-04-28T05:41:29;7.90;99.90
13336;DHT22;6737;51.480;11.962;2023-04-28T05:43:55;7.90;99.90
13336;DHT22;6737;51.480;11.962;2023-04-28T05:46:20;7.90;99.90
13336;DHT22;6737;51.480;11.962;2023-04-28T05:48:46;7.90;99.90
13336;DHT22;6737;51.480;11.962;2023-04-28T05:51:12;7.90;99.90
13336;DHT22;6737;51.480;11.962;2023-04-28T05:53:38;8.00;99.90
13336;DHT22;6737;51.480;11.962;2023-04-28T05:56:04;8.00;99.90
13336;DHT22;6737;51.480;11.962;2023-04-28T05:58:31;8.10;99.90
13336;DHT22;6737;51.480;11.962;2023-04-28T06:00:56;8.20;99.90
13336;DHT22;6737;51.480;11.962;2023-04-28T06:03:22;8.20;99.90
13336;DHT22;6737;51.480;11.962;2023-04-28T06:05:48;8.30;99.90
13336;DHT22;6737;51.480;11.962;2023-04-28T06:08:14;8.30;99.90
13336;DHT22;6737;51.480;11.962;2023-04-28T06:10:40;8.30;99.90
13336;DHT22;6737;51.480;11.962;2023-04-28T06:13:06;8.30;99.90
13336;DHT22;6737;51.480;11.962;2023-04-28T06:15:32;8.30;99.90
13336;DHT22;6737;51.480;11.962;2023-04-28T06:17:58;8.40;99.90
13336;DHT22;6737;51.480;11.962;2023-04-28T06:20:24;8.40;99.90
13336;DHT22;6737;51.480;11.962;2023-04-28T06:22:49;8.50;99.90
13336;DHT22;6737;51.480;11.962;2023-04-28T06:25:16;8.50;99.90
13336;DHT22;6737;51.480;11.962;2023-04-28T06:27:41;8.50;99.90
13336;DHT22;6737;51.480;11.962;2023-04-28T06:30:08;8.60;99.90
13336;DHT22;6737;51.480;11.962;2023-04-28T06:32:34;8.60;99.90
13336;DHT22;6737;51.480;11.962;2023-04-28T06:35:00;8.70;99.90
13336;DHT22;6737;51.480;11.962;2023-04-28T06:37:25;8.80;99.90
13336;DHT22;6737;51.480;11.962;2023-04-28T06:39:51;8.90;99.90
13336;DHT22;6737;51.480;11.962;2023-04-28T06:42:17;9.00;99.90
13336;DHT22;6737;51.480;11.962;2023-04-28T06:44:45;9.10;99.90
13336;DHT22;6737;51.480;11.962;2023-04-28T06:47:11;9.20;99.90
13336;DHT22;6737;51.480;11.962;2023-04-28T06:49:36;9.20;99.90
13336;DHT22;6737;51.480;11.962;2023-04-28T06:52:02;9.30;99.90
13336;DHT22;6737;51.480;11.962;2023-04-28T06:54:28;9.30;99.90
13336;DHT22;6737;51.480;11.962;2023-04-28T06:56:53;9.30;99.90
13336;DHT22;6737;51.480;11.962;2023-04-28T06:59:19;9.40;99.90
13336;DHT22;6737;51.480;11.962;2023-04-28T07:01:45;9.40;99.90
13336;DHT22;6737;51.480;11.962;2023-04-28T07:04:11;9.40;99.90
13336;DHT22;6737;51.480;11.962;2023-04-28T07:06:37;9.50;99.90
13336;DHT22;6737;51.480;11.962;2023-04-28T07:09:02;9.60;99.90
13336;DHT22;6737;51.480;11.962;2023-04-28T07:11:29;9.60;99.90
13336;DHT22;6737;51.480;11.962;2023-04-28T07:13:54;9.60;99.90
13336;DHT22;6737;51.480;11.962;2023-04-28T07:16:20;9.70;99.90
13336;DHT22;6737;51.480;11.962;2023-04-28T07:18:46;9.80;99.90
13336;DHT22;6737;51.480;11.962;2023-04-28T07:21:12;9.90;99.90
13336;DHT22;6737;51.480;11.962;2023-04-28T07:23:38;10.00;99.90
13336;DHT22;6737;51.480;11.962;2023-04-28T07:26:05;10.10;99.90
13336;DHT22;6737;51.480;11.962;2023-04-28T07:28:31;10.20;99.90
13336;DHT22;6737;51.480;11.962;2023-04-28T07:30:57;10.30;99.90
13336;DHT22;6737;51.480;11.962;2023-04-28T07:33:23;10.30;99.90
13336;DHT22;6737;51.480;11.962;2023-04-28T07:35:48;10.40;99.90
13336;DHT22;6737;51.480;11.962;2023-04-28T07:38:15;10.40;99.90
13336;DHT22;6737;51.480;11.962;2023-04-28T07:40:42;10.40;99.90
13336;DHT22;6737;51.480;11.962;2023-04-28T07:43:08;10.50;99.90
13336;DHT22;6737;51.480;11.962;2023-04-28T07:45:37;10.50;99.90
13336;DHT22;6737;51.480;11.962;2023-04-28T07:48:04;10.60;99.90
13336;DHT22;6737;51.480;11.962;2023-04-28T07:50:29;10.60;99.90
13336;DHT22;6737;51.480;11.962;2023-04-28T07:52:55;10.60;99.90
13336;DHT22;6737;51.480;11.962;2023-04-28T07:55:22;10.70;99.90
13336;DHT22;6737;51.480;11.962;2023-04-28T07:57:48;10.70;99.90
13336;DHT22;6737;51.480;11.962;2023-04-28T08:00:14;10.70;99.90
13336;DHT22;6737;51.480;11.962;2023-04-28T08:02:40;10.70;99.90
13336;DHT22;6737;51.480;11.962;2023-04-28T08:05:06;10.70;99.90
13336;DHT22;6737;51.480;11.962;2023-04-28T08:07:34;10.80;99.90
13336;DHT22;6737;51.480;11.962;2023-04-28T08:10:02;10.80;99.90
13336;DHT22;6737;51.480;11.962;2023-04-28T08:12:28;10.80;99.90
13336;DHT22;6737;51.480;11.962;2023-04-28T08:14:54;10.90;99.90
13336;DHT22;6737;51.480;11.962;2023-04-28T08:17:19;10.90;99.90
13336;DHT22;6737;51.480;11.962;2023-04-28T08:19:45;10.90;99.90
13336;DHT22;6737;51.480;11.962;2023-04-28T08:22:12;10.90;99.90
13336;DHT22;6737;51.480;11.962;2023-04-28T08:24:38;10.90;99.90
13336;DHT22;6737;51.480;11.962;2023-04-28T08:27:04;10.90;99.90
13336;DHT22;6737;51.480;11.962;2023-04-28T08:29:30;11.00;99.90
13336;DHT22;6737;51.480;11.962;2023-04-28T08:31:56;11.00;99.90
13336;DHT22;6737;51.480;11.962;2023-04-28T08:34:22;11.10;99.90
13336;DHT22;6737;51.480;11.962;2023-04-28T08:36:48;11.10;99.90
13336;DHT22;6737;51.480;11.962;2023-04-28T08:39:14;11.20;99.90
13336;DHT22;6737;51.480;11.962;2023-04-28T08:41:40;11.20;99.90
13336;DHT22;6737;51.480;11.962;2023-04-28T08:44:09;11.20;99.90
13336;DHT22;6737;51.480;11.962;2023-04-28T08:46:40;11.20;99.90
13336;DHT22;6737;51.480;11.962;2023-04-28T08:49:14;11.30;99.90
13336;DHT22;6737;51.480;11.962;2023-04-28T08:51:49;11.30;99.90
13336;DHT22;6737;51.480;11.962;2023-04-28T08:54:16;11.20;99.90
13336;DHT22;6737;51.480;11.962;2023-04-28T08:56:45;11.20;99.90
13336;DHT22;6737;51.480;11.962;2023-04-28T08:59:11;11.20;99.90
13336;DHT22;6737;51.480;11.962;2023-04-28T09:01:40;11.20;99.90
13336;DHT22;6737;51.480;11.962;2023-04-28T09:04:06;11.20;99.90
13336;DHT22;6737;51.480;11.962;2023-04-28T09:06:36;11.20;99.90
13336;DHT22;6737;51.480;11.962;2023-04-28T09:09:25;11.20;99.90
13336;DHT22;6737;51.480;11.962;2023-04-28T09:11:56;11.30;99.90
13336;DHT22;6737;51.480;11.962;2023-04-28T09:14:24;11.30;99.90
13336;DHT22;6737;51.480;11.962;2023-04-28T09:16:51;11.30;99.90
13336;DHT22;6737;51.480;11.962;2023-04-28T09:19:17;11.30;99.90
13336;DHT22;6737;51.480;11.962;2023-04-28T09:21:52;11.30;99.90
13336;DHT22;6737;51.480;11.962;2023-04-28T09:24:32;11.30;99.90
13336;DHT22;6737;51.480;11.962;2023-04-28T09:26:59;11.30;99.90
13336;DHT22;6737;51.480;11.962;2023-04-28T09:29:27;11.30;99.90
13336;DHT22;6737;51.480;11.962;2023-04-28T09:31:59;11.30;99.90
13336;DHT22;6737;51.480;11.962;2023-04-28T09:34:53;11.20;99.90
13336;DHT22;6737;51.480;11.962;2023-04-28T09:37:23;11.20;99.90
13336;DHT22;6737;51.480;11.962;2023-04-28T09:39:51;11.20;99.90
13336;DHT22;6737;51.480;11.962;2023-04-28T09:42:37;11.20;99.90
13336;DHT22;6737;51.480;11.962;2023-04-28T09:45:05;11.20;99.90
13336;DHT22;6737;51.480;11.962;2023-04-28T09:47:33;11.20;99.90
13336;DHT22;6737;51.480;11.962;2023-04-28T09:50:02;11.30;99.90
13336;DHT22;6737;51.480;11.962;2023-04-28T09:52:29;11.30;99.90
13336;DHT22;6737;51.480;11.962;2023-04-28T09:54:56;11.20;99.90
13336;DHT22;6737;51.480;11.962;2023-04-28T09:57:22;11.20;99.90
13336;DHT22;6737;51.480;11.962;2023-04-28T09:59:50;11.20;99.90
13336;DHT22;6737;51.480;11.962;2023-04-28T10:02:19;11.20;99.90
13336;DHT22;6737;51.480;11.962;2023-04-28T10:04:47;11.20;99.90
13336;DHT22;6737;51.480;11.962;2023-04-28T10:07:14;11.20;99.90
13336;DHT22;6737;51.480;11.962;2023-04-28T10:09:42;11.20;99.90
13336;DHT22;6737;51.480;11.962;2023-04-28T10:12:19;11.20;99.90
13336;DHT22;6737;51.480;11.962;2023-04-28T10:14:47;11.20;99.90
13336;DHT22;6737;51.480;11.962;2023-04-28T10:17:20;11.10;99.90
13336;DHT22;6737;51.480;11.962;2023-04-28T10:19:48;11.10;99.90
13336;DHT22;6737;51.480;11.962;2023-04-28T10:27:40;11.00;99.90
13336;DHT22;6737;51.480;11.962;2023-04-28T10:32:43;10.90;99.90
13336;DHT22;6737;51.480;11.962;2023-04-28T10:38:03;10.80;99.90
13336;DHT22;6737;51.480;11.962;2023-04-28T10:40:40;10.80;99.90
13336;DHT22;6737;51.480;11.962;2023-04-28T10:43:33;10.80;99.90
13336;DHT22;6737;51.480;11.962;2023-04-28T10:46:04;10.80;99.90
13336;DHT22;6737;51.480;11.962;2023-04-28T10:56:17;10.90;99.90
13336;DHT22;6737;51.480;11.962;2023-04-28T11:06:20;11.10;99.90
13336;DHT22;6737;51.480;11.962;2023-04-28T11:16:58;11.10;99.90
13336;DHT22;6737;51.480;11.962;2023-04-28T11:19:28;11.10;99.90
13336;DHT22;6737;51.480;11.962;2023-04-28T11:21:55;11.20;99.90
13336;DHT22;6737;51.480;11.962;2023-04-28T11:24:22;11.20;99.90
13336;DHT22;6737;51.480;11.962;2023-04-28T11:26:53;11.20;99.90
13336;DHT22;6737;51.480;11.962;2023-04-28T11:29:34;11.20;99.90
13336;DHT22;6737;51.480;11.962;2023-04-28T11:32:01;11.30;99.90
13336;DHT22;6737;51.480;11.962;2023-04-28T11:34:28;11.30;99.90
13336;DHT22;6737;51.480;11.962;2023-04-28T11:36:54;11.40;99.90
13336;DHT22;6737;51.480;11.962;2023-04-28T11:42:00;11.50;99.90
13336;DHT22;6737;51.480;11.962;2023-04-28T11:44:29;11.60;99.90
13336;DHT22;6737;51.480;11.962;2023-04-28T11:46:56;11.70;99.90
13336;DHT22;6737;51.480;11.962;2023-04-28T11:49:26;11.70;99.90
13336;DHT22;6737;51.480;11.962;2023-04-28T11:51:54;11.80;99.90
13336;DHT22;6737;51.480;11.962;2023-04-28T11:54:25;11.80;99.90
13336;DHT22;6737;51.480;11.962;2023-04-28T11:56:53;11.80;99.90
13336;DHT22;6737;51.480;11.962;2023-04-28T11:59:25;11.80;99.90
13336;DHT22;6737;51.480;11.962;2023-04-28T12:01:53;11.70;99.90
13336;DHT22;6737;51.480;11.962;2023-04-28T12:07:13;11.80;99.90
13336;DHT22;6737;51.480;11.962;2023-04-28T12:09:41;11.80;99.90
13336;DHT22;6737;51.480;11.962;2023-04-28T12:12:10;11.70;99.90
13336;DHT22;6737;51.480;11.962;2023-04-28T12:15:02;11.70;99.90
13336;DHT22;6737;51.480;11.962;2023-04-28T12:20:03;11.80;99.90
13336;DHT22;6737;51.480;11.962;2023-04-28T12:22:29;11.80;99.90
13336;DHT22;6737;51.480;11.962;2023-04-28T12:25:09;11.90;99.90
13336;DHT22;6737;51.480;11.962;2023-04-28T12:27:36;12.00;99.90
13336;DHT22;6737;51.480;11.962;2023-04-28T12:32:40;12.00;99.90
13336;DHT22;6737;51.480;11.962;2023-04-28T12:35:08;12.10;99.90
13336;DHT22;6737;51.480;11.962;2023-04-28T12:37:34;12.20;99.90
13336;DHT22;6737;51.480;11.962;2023-04-28T12:39:59;12.20;99.90
13336;DHT22;6737;51.480;11.962;2023-04-28T12:42:26;12.20;99.90
13336;DHT22;6737;51.480;11.962;2023-04-28T12:44:53;12.20;99.90
13336;DHT22;6737;51.480;11.962;2023-04-28T12:47:19;12.20;99.90
13336;DHT22;6737;51.480;11.962;2023-04-28T12:49:45;12.10;99.90
13336;DHT22;6737;51.480;11.962;2023-04-28T12:52:13;12.10;99.90
13336;DHT22;6737;51.480;11.962;2023-04-28T12:54:39;12.10;99.90
13336;DHT22;6737;51.480;11.962;2023-04-28T12:57:12;12.10;99.90
13336;DHT22;6737;51.480;11.962;2023-04-28T12:59:38;12.10;99.90
13336;DHT22;6737;51.480;11.962;2023-04-28T13:02:04;12.20;99.90
13336;DHT22;6737;51.480;11.962;2023-04-28T13:04:30;12.30;99.90
13336;DHT22;6737;51.480;11.962;2023-04-28T13:06:59;12.40;99.90
13336;DHT22;6737;51.480;11.962;2023-04-28T13:09:26;12.40;99.90
13336;DHT22;6737;51.480;11.962;2023-04-28T13:11:52;12.40;99.90
13336;DHT22;6737;51.480;11.962;2023-04-28T13:14:19;12.40;99.90
13336;DHT22;6737;51.480;11.962;2023-04-28T13:16:44;12.40;99.90
13336;DHT22;6737;51.480;11.962;2023-04-28T13:19:11;12.40;99.90
13336;DHT22;6737;51.480;11.962;2023-04-28T13:21:42;12.40;99.90
13336;DHT22;6737;51.480;11.962;2023-04-28T13:24:08;12.40;99.90
13336;DHT22;6737;51.480;11.962;2023-04-28T13:26:35;12.40;99.90
13336;DHT22;6737;51.480;11.962;2023-04-28T13:29:02;12.40;99.90
13336;DHT22;6737;51.480;11.962;2023-04-28T13:31:29;12.40;99.90
13336;DHT22;6737;51.480;11.962;2023-04-28T13:33:56;12.40;99.90
13336;DHT22;6737;51.480;11.962;2023-04-28T13:36:22;12.40;99.90
13336;DHT22;6737;51.480;11.962;2023-04-28T13:38:49;12.30;99.90
13336;DHT22;6737;51.480;11.962;2023-04-28T13:41:15;12.20;99.90
13336;DHT22;6737;51.480;11.962;2023-04-28T13:43:42;12.20;99.90
13336;DHT22;6737;51.480;11.962;2023-04-28T13:46:08;12.20;99.90
13336;DHT22;6737;51.480;11.962;2023-04-28T13:48:34;12.20;99.90
13336;DHT22;6737;51.480;11.962;2023-04-28T13:51:01;12.10;99.90
13336;DHT22;6737;51.480;11.962;2023-04-28T13:53:28;12.10;99.90
13336;DHT22;6737;51.480;11.962;2023-04-28T13:55:54;12.00;99.90
13336;DHT22;6737;51.480;11.962;2023-04-28T13:58:26;12.00;99.90
13336;DHT22;6737;51.480;11.962;2023-04-28T14:00:52;12.00;99.90
13336;DHT22;6737;51.480;11.962;2023-04-28T14:03:19;11.90;99.90
13336;DHT22;6737;51.480;11.962;2023-04-28T14:05:49;11.90;99.90
13336;DHT22;6737;51.480;11.962;2023-04-28T14:08:16;11.90;99.90
13336;DHT22;6737;51.480;11.962;2023-04-28T14:10:42;11.90;99.90
13336;DHT22;6737;51.480;11.962;2023-04-28T14:13:08;11.90;99.90
13336;DHT22;6737;51.480;11.962;2023-04-28T14:15:34;12.00;99.90
13336;DHT22;6737;51.480;11.962;2023-04-28T14:18:00;12.00;99.90
13336;DHT22;6737;51.480;11.962;2023-04-28T14:20:26;12.00;99.90
13336;DHT22;6737;51.480;11.962;2023-04-28T14:22:52;12.00;99.90
13336;DHT22;6737;51.480;11.962;2023-04-28T14:25:18;12.00;99.90
13336;DHT22;6737;51.480;11.962;2023-04-28T14:27:48;12.00;99.90
13336;DHT22;6737;51.480;11.962;2023-04-28T14:30:15;12.00;99.90
13336;DHT22;6737;51.480;11.962;2023-04-28T14:32:41;12.00;99.90
13336;DHT22;6737;51.480;11.962;2023-04-28T14:35:07;12.00;99.90
13336;DHT22;6737;51.480;11.962;2023-04-28T14:37:34;12.00;99.90
13336;DHT22;6737;51.480;11.962;2023-04-28T14:40:00;12.00;99.90
13336;DHT22;6737;51.480;11.962;2023-04-28T14:42:30;12.10;99.90
13336;DHT22;6737;51.480;11.962;2023-04-28T14:45:06;12.10;99.90
13336;DHT22;6737;51.480;11.962;2023-04-28T14:47:35;12.00;99.90
13336;DHT22;6737;51.480;11.962;2023-04-28T14:50:02;12.10;99.90
13336;DHT22;6737;51.480;11.962;2023-04-28T14:52:28;12.00;99.90
13336;DHT22;6737;51.480;11.962;2023-04-28T14:54:57;12.00;99.90
13336;DHT22;6737;51.480;11.962;2023-04-28T14:57:24;12.10;99.90
13336;DHT22;6737;51.480;11.962;2023-04-28T14:59:50;12.10;99.90
13336;DHT22;6737;51.480;11.962;2023-04-28T15:02:17;12.10;99.90
13336;DHT22;6737;51.480;11.962;2023-04-28T15:04:43;12.10;99.90
13336;DHT22;6737;51.480;11.962;2023-04-28T15:07:11;12.10;99.90
13336;DHT22;6737;51.480;11.962;2023-04-28T15:09:38;12.10;99.90
13336;DHT22;6737;51.480;11.962;2023-04-28T15:12:04;12.10;99.90
13336;DHT22;6737;51.480;11.962;2023-04-28T15:14:30;12.10;99.90
13336;DHT22;6737;51.480;11.962;2023-04-28T15:16:58;12.10;99.90
13336;DHT22;6737;51.480;11.962;2023-04-28T15:19:24;12.10;99.90
13336;DHT22;6737;51.480;11.962;2023-04-28T15:21:50;12.10;99.90
13336;DHT22;6737;51.480;11.962;2023-04-28T15:24:18;12.10;99.90
13336;DHT22;6737;51.480;11.962;2023-04-28T15:26:45;12.20;99.90
13336;DHT22;6737;51.480;11.962;2023-04-28T15:29:11;12.20;99.90
13336;DHT22;6737;51.480;11.962;2023-04-28T15:31:37;12.30;99.90
13336;DHT22;6737;51.480;11.962;2023-04-28T15:34:05;12.30;99.90
13336;DHT22;6737;51.480;11.962;2023-04-28T15:36:33;12.30;99.90
13336;DHT22;6737;51.480;11.962;2023-04-28T15:39:01;12.30;99.90
13336;DHT22;6737;51.480;11.962;2023-04-28T15:41:27;12.30;99.90
13336;DHT22;6737;51.480;11.962;2023-04-28T15:43:54;12.30;99.90
13336;DHT22;6737;51.480;11.962;2023-04-28T15:46:21;12.40;99.90
13336;DHT22;6737;51.480;11.962;2023-04-28T15:48:47;12.30;99.90
13336;DHT22;6737;51.480;11.962;2023-04-28T15:51:14;12.30;99.90
13336;DHT22;6737;51.480;11.962;2023-04-28T15:53:40;12.30;99.90
13336;DHT22;6737;51.480;11.962;2023-04-28T15:56:06;12.30;99.90
13336;DHT22;6737;51.480;11.962;2023-04-28T15:58:32;12.30;99.90
13336;DHT22;6737;51.480;11.962;2023-04-28T16:00:58;12.30;99.90
13336;DHT22;6737;51.480;11.962;2023-04-28T16:03:24;12.30;99.90
13336;DHT22;6737;51.480;11.962;2023-04-28T16:05:52;12.30;99.90
13336;DHT22;6737;51.480;11.962;2023-04-28T16:08:19;12.30;99.90
13336;DHT22;6737;51.480;11.962;2023-04-28T16:10:49;12.30;99.90
13336;DHT22;6737;51.480;11.962;2023-04-28T16:13:15;12.30;99.90
13336;DHT22;6737;51.480;11.962;2023-04-28T16:15:41;12.30;99.90
13336;DHT22;6737;51.480;11.962;2023-04-28T16:18:08;12.30;99.90
13336;DHT22;6737;51.480;11.962;2023-04-28T16:20:34;12.30;99.90
13336;DHT22;6737;51.480;11.962;2023-04-28T16:23:00;12.20;99.90